Estación Meteorológica Peña el Pijo (Robertgarden) [ 11/24/17 15:34:18 CET ]

Fecha Hora Presion(HPa) Temp (°C) Humedad % Rocio (°C) Viento ( m/s) Direccion Lluvia 1Hora(mm) Lluvia 24H(mm) LLuvia Total(mm)
2017-Jun-15 01:01:55 1011.500 19.9 59 11.6         1427.09
2017-Jun-15 02:01:49 1011.400 19.3 61 11.6         1427.09
2017-Jun-15 03:01:38 1011.000 18.4 61 10.7         1427.09
2017-Jun-15 04:01:42 1010.900 17.1 62 9.8         1427.09
2017-Jun-15 05:01:41 1010.600 15.9 63 8.9         1427.09
2017-Jun-15 06:01:38 1010.900 14.9 68 9.0         1427.09
2017-Jun-15 07:01:35 1011.200 14.3 69 8.7         1427.09
2017-Jun-15 08:01:41 1011.400 17.2 69 11.5         1427.09
2017-Jun-15 09:01:57 1011.800 25.1 55 15.4         1427.09
2017-Jun-15 10:01:37 1012.000 30.1 42 15.8         1427.09
2017-Jun-15 11:01:55 1012.200 33.4 32 14.4         1427.09
2017-Jun-15 12:01:39 1012.300 36.4 27 14.2         1427.09
2017-Jun-15 13:01:48 1012.100 39.1 24 14.6         1427.09
2017-Jun-15 14:01:34 1012.100 39.2 22 13.4         1427.09
2017-Jun-15 15:01:50 1011.400 40.6 19 12.3         1427.09
2017-Jun-15 16:01:45 1011.400 33.3 28 12.2         1427.09
2017-Jun-15 17:02:00 1011.700 30.4 36 13.6         1427.09
2017-Jun-15 18:01:57 1011.500 30.2 38 14.3         1427.09
2017-Jun-15 19:01:39 1012.000 28.8 45 15.3         1427.09
2017-Jun-15 20:01:29 1012.800 27.6 51 16.5         1427.09
2017-Jun-15 21:01:35 1013.300 25.9 42 12.0         1427.09
2017-Jun-15 22:01:50 1013.800 23.1 51 12.4         1427.09
2017-Jun-15 23:01:46 1015.100 20.9 59 12.6         1427.09

Temperatura Máxima:40°    Temperatura Mínima:14°
Presión Máxima:1015.100 Hpa    Presión Mínima:1010.600 Hpa


Volver